createdAt,value
2023-02-11T00:00:51.354Z,68.70
2023-02-11T00:01:53.157Z,69.15
2023-02-11T00:02:54.742Z,70.77
2023-02-11T00:03:57.276Z,71.11
2023-02-11T00:05:01.486Z,70.99
2023-02-11T00:06:09.288Z,70.79
2023-02-11T00:07:10.834Z,69.94
2023-02-11T00:08:17.002Z,69.04
2023-02-11T00:09:18.556Z,69.04
2023-02-11T00:10:20.131Z,68.33
2023-02-11T00:11:24.074Z,67.86
2023-02-11T00:12:26.061Z,67.61
2023-02-11T00:13:27.786Z,67.48
2023-02-11T00:14:29.393Z,66.84
2023-02-11T00:15:31.083Z,66.85
2023-02-11T00:16:32.917Z,66.88
2023-02-11T00:17:35.746Z,67.73
2023-02-11T00:18:37.479Z,68.06
2023-02-11T00:19:39.939Z,68.92
2023-02-11T00:20:42.092Z,69.07
2023-02-11T00:21:43.647Z,69.55
2023-02-11T00:22:45.433Z,69.28
2023-02-11T00:23:47.892Z,69.13
2023-02-11T00:24:49.506Z,69.09
2023-02-11T00:25:51.320Z,69.84
2023-02-11T00:26:53.138Z,70.69
2023-02-11T00:27:54.719Z,71.63
2023-02-11T00:28:57.141Z,71.51
2023-02-11T00:30:00.551Z,71.95
2023-02-11T00:31:02.656Z,71.94
2023-02-11T00:32:05.387Z,72.57
2023-02-11T00:33:07.357Z,72.82
2023-02-11T00:34:08.959Z,73.81
2023-02-11T00:35:10.524Z,74.50
2023-02-11T00:36:16.387Z,75.41
2023-02-11T00:37:17.903Z,75.11
2023-02-11T00:38:19.577Z,75.52
2023-02-11T00:39:21.127Z,75.82
2023-02-11T00:40:22.832Z,76.43
2023-02-11T00:41:26.042Z,76.62
2023-02-11T00:42:27.633Z,77.29
2023-02-11T00:43:29.218Z,77.90
2023-02-11T00:44:30.867Z,77.81
2023-02-11T00:45:32.579Z,77.68
2023-02-11T00:46:34.257Z,78.15
2023-02-11T00:47:36.202Z,78.67
2023-02-11T00:48:38.017Z,79.14
2023-02-11T00:49:40.432Z,79.17
2023-02-11T00:50:42.070Z,79.56
2023-02-11T00:51:43.632Z,79.17
2023-02-11T00:52:45.218Z,79.44
2023-02-11T00:53:46.775Z,79.69
2023-02-11T00:54:48.324Z,79.16
2023-02-11T00:55:50.142Z,79.09
2023-02-11T00:56:51.767Z,78.47
2023-02-11T00:57:53.435Z,78.41
2023-02-11T00:58:55.109Z,77.91
2023-02-11T00:59:56.672Z,77.45
2023-02-11T01:00:58.358Z,77.07
2023-02-11T01:01:59.993Z,76.61
2023-02-11T01:03:01.581Z,77.00
2023-02-11T01:04:03.211Z,76.45
2023-02-11T01:05:05.558Z,76.76
2023-02-11T01:06:08.812Z,76.85
2023-02-11T01:07:10.450Z,76.41
2023-02-11T01:08:12.425Z,76.67
2023-02-11T01:09:13.945Z,77.22
2023-02-11T01:10:15.949Z,77.14
2023-02-11T01:11:20.362Z,76.98
2023-02-11T01:12:22.549Z,77.23
2023-02-11T01:13:25.147Z,76.40
2023-02-11T01:14:26.662Z,76.00
2023-02-11T01:15:28.368Z,76.10
2023-02-11T01:16:30.058Z,75.62
2023-02-11T01:17:31.693Z,75.37
2023-02-11T01:18:33.643Z,74.66
2023-02-11T01:19:37.415Z,75.01
2023-02-11T01:20:38.956Z,75.17
2023-02-11T01:21:40.478Z,75.50
2023-02-11T01:22:42.450Z,75.74
2023-02-11T01:23:44.124Z,75.78
2023-02-11T01:24:45.651Z,75.79
2023-02-11T01:25:47.648Z,75.17
2023-02-11T01:26:49.256Z,74.85
2023-02-11T01:27:50.968Z,75.03
2023-02-11T01:28:52.546Z,74.88
2023-02-11T01:29:54.105Z,74.75
2023-02-11T01:30:56.675Z,74.45
2023-02-11T01:31:58.365Z,74.92
2023-02-11T01:32:59.964Z,75.64
2023-02-11T01:34:01.635Z,75.81
2023-02-11T01:35:03.826Z,76.91
2023-02-11T01:36:06.223Z,76.90
2023-02-11T01:37:07.890Z,77.56
2023-02-11T01:38:16.557Z,77.59
2023-02-11T01:39:18.195Z,78.17
2023-02-11T01:40:19.775Z,77.79
2023-02-11T01:41:21.503Z,77.34
2023-02-11T01:42:23.655Z,77.50
2023-02-11T01:43:26.549Z,76.75
2023-02-11T01:44:33.476Z,77.34
2023-02-11T01:45:50.119Z,78.25
2023-02-11T01:46:52.325Z,78.20
2023-02-11T01:47:53.924Z,77.87
2023-02-11T01:49:11.592Z,76.86
2023-02-11T01:50:13.395Z,76.31
2023-02-11T01:51:21.064Z,76.10
2023-02-11T01:52:37.129Z,75.09
2023-02-11T01:53:57.560Z,74.58
2023-02-11T01:55:22.065Z,75.81
2023-02-11T01:56:43.824Z,77.15
2023-02-11T01:57:51.271Z,78.01
2023-02-11T01:58:59.311Z,78.94
2023-02-11T02:00:03.938Z,79.06
2023-02-11T02:01:08.391Z,79.04
2023-02-11T02:02:12.732Z,79.20
2023-02-11T02:03:22.464Z,78.42
2023-02-11T02:04:31.461Z,77.90
2023-02-11T02:05:39.241Z,77.43
2023-02-11T02:06:46.285Z,77.86
2023-02-11T02:08:15.818Z,76.96
2023-02-11T02:09:25.573Z,76.37
2023-02-11T02:10:29.096Z,76.08
2023-02-11T02:11:31.015Z,75.63
2023-02-11T02:12:32.641Z,75.43
2023-02-11T02:13:35.606Z,75.14
2023-02-11T02:14:41.471Z,74.85
2023-02-11T02:15:53.372Z,75.29
2023-02-11T02:16:55.330Z,75.41
2023-02-11T02:18:24.656Z,76.09
2023-02-11T02:20:02.372Z,76.69
2023-02-11T02:21:42.736Z,76.07
2023-02-11T02:22:55.143Z,76.05
2023-02-11T02:24:15.302Z,75.50
2023-02-11T02:25:38.465Z,75.21
2023-02-11T02:27:10.968Z,74.93
2023-02-11T02:28:18.555Z,74.78
2023-02-11T02:29:20.112Z,74.57
2023-02-11T02:30:27.864Z,74.48
2023-02-11T02:31:53.455Z,75.85
2023-02-11T02:33:22.268Z,76.40
2023-02-11T02:34:56.395Z,76.48
2023-02-11T02:35:57.905Z,76.11
2023-02-11T02:37:08.236Z,75.68
2023-02-11T02:38:34.550Z,76.07
2023-02-11T02:39:37.467Z,76.68
2023-02-11T02:40:54.762Z,76.96
2023-02-11T02:41:57.264Z,76.51
2023-02-11T02:43:00.894Z,76.87
2023-02-11T02:44:03.085Z,76.73
2023-02-11T02:45:05.269Z,76.08
2023-02-11T02:46:32.543Z,75.91
2023-02-11T02:47:34.137Z,75.59
2023-02-11T02:48:35.851Z,75.30
2023-02-11T02:49:37.385Z,75.08
2023-02-11T02:50:39.152Z,74.90
2023-02-11T02:51:55.711Z,74.64
2023-02-11T02:53:20.530Z,74.59
2023-02-11T02:54:40.683Z,74.24
2023-02-11T02:56:00.298Z,73.82
2023-02-11T02:57:34.906Z,73.27
2023-02-11T02:58:52.206Z,73.61
2023-02-11T02:59:59.781Z,74.04
2023-02-11T03:01:36.850Z,74.26
2023-02-11T03:02:59.874Z,73.96
2023-02-11T03:04:22.779Z,73.69
2023-02-11T03:05:49.745Z,73.68
2023-02-11T03:07:33.575Z,74.35
2023-02-11T03:08:51.378Z,74.77
2023-02-11T03:10:05.727Z,74.06
2023-02-11T03:11:09.545Z,74.13
2023-02-11T03:12:13.148Z,75.14
2023-02-11T03:13:19.482Z,76.19
2023-02-11T03:14:23.542Z,75.81
2023-02-11T03:15:28.387Z,74.84
2023-02-11T03:16:30.871Z,75.28
2023-02-11T03:17:35.081Z,75.73
2023-02-11T03:18:41.788Z,77.64
2023-02-11T03:19:46.466Z,78.98
2023-02-11T03:20:53.310Z,78.17
2023-02-11T03:21:56.831Z,78.32
2023-02-11T03:23:12.657Z,77.26
2023-02-11T03:24:22.224Z,76.06
2023-02-11T03:25:30.266Z,74.72
2023-02-11T03:26:38.846Z,74.11
2023-02-11T03:28:01.491Z,74.20
2023-02-11T03:29:09.574Z,74.69
2023-02-11T03:30:26.793Z,74.97
2023-02-11T03:31:35.695Z,75.00
2023-02-11T03:32:42.026Z,74.67
2023-02-11T03:34:00.114Z,74.88
2023-02-11T03:35:23.227Z,74.71
2023-02-11T03:36:34.375Z,75.73
2023-02-11T03:37:45.384Z,76.35
2023-02-11T03:38:55.693Z,76.27
2023-02-11T03:40:05.343Z,76.47
2023-02-11T03:41:10.009Z,76.33
2023-02-11T03:42:14.662Z,76.31
2023-02-11T03:43:31.976Z,76.20
2023-02-11T03:44:40.036Z,76.12
2023-02-11T03:45:41.709Z,75.91
2023-02-11T03:46:47.992Z,75.25
2023-02-11T03:47:56.838Z,75.29
2023-02-11T03:49:09.710Z,75.49
2023-02-11T03:50:14.778Z,75.77
2023-02-11T03:51:17.278Z,75.67
2023-02-11T03:52:21.592Z,75.21
2023-02-11T03:53:23.754Z,74.74
2023-02-11T03:54:30.224Z,74.13
2023-02-11T03:55:37.003Z,73.94
2023-02-11T03:56:52.143Z,73.58
2023-02-11T03:57:54.099Z,73.82
2023-02-11T03:58:56.012Z,73.30
2023-02-11T03:59:59.413Z,74.70
2023-02-11T04:01:02.789Z,75.95
2023-02-11T04:02:04.388Z,76.56
2023-02-11T04:03:06.684Z,77.19
2023-02-11T04:04:08.241Z,76.92
2023-02-11T04:05:15.274Z,76.92
2023-02-11T04:06:16.861Z,76.75
2023-02-11T04:07:18.572Z,77.85
2023-02-11T04:08:20.926Z,77.84
2023-02-11T04:09:22.499Z,77.97
2023-02-11T04:10:24.100Z,78.09
2023-02-11T04:11:25.651Z,78.73
2023-02-11T04:12:27.199Z,79.33
2023-02-11T04:13:28.772Z,79.49
2023-02-11T04:14:30.325Z,79.43
2023-02-11T04:15:32.377Z,79.22
2023-02-11T04:16:33.982Z,79.54
2023-02-11T04:17:35.633Z,78.71
2023-02-11T04:18:37.173Z,79.01
2023-02-11T04:19:39.091Z,79.34
2023-02-11T04:20:40.669Z,79.15
2023-02-11T04:21:42.171Z,79.13
2023-02-11T04:22:43.728Z,77.96
2023-02-11T04:23:45.249Z,78.27
2023-02-11T04:24:46.918Z,77.43
2023-02-11T04:25:51.538Z,77.42
2023-02-11T04:26:53.565Z,76.49
2023-02-11T04:27:55.236Z,76.63
2023-02-11T04:28:56.806Z,75.96
2023-02-11T04:29:58.494Z,75.67
2023-02-11T04:31:00.164Z,74.85
2023-02-11T04:32:01.779Z,74.68
2023-02-11T04:33:03.526Z,73.61
2023-02-11T04:34:05.190Z,74.64
2023-02-11T04:35:07.050Z,74.83
2023-02-11T04:36:08.761Z,79.83
2023-02-11T04:37:10.589Z,78.52
2023-02-11T04:38:12.182Z,78.16
2023-02-11T04:39:13.862Z,78.42
2023-02-11T04:40:15.509Z,77.65
2023-02-11T04:41:17.133Z,77.12
2023-02-11T04:42:18.722Z,76.64
2023-02-11T04:43:20.322Z,76.42
2023-02-11T04:44:21.919Z,76.03
2023-02-11T04:45:23.468Z,76.36
2023-02-11T04:46:25.306Z,76.07
2023-02-11T04:47:26.899Z,75.20
2023-02-11T04:48:28.452Z,74.24
2023-02-11T04:49:29.995Z,73.66
2023-02-11T04:50:31.581Z,73.44
2023-02-11T04:51:33.155Z,73.26
2023-02-11T04:52:34.705Z,72.77
2023-02-11T04:53:36.245Z,71.97
2023-02-11T04:54:37.842Z,72.23
2023-02-11T04:55:39.397Z,71.33
2023-02-11T04:56:40.955Z,71.55
2023-02-11T04:57:42.466Z,71.30
2023-02-11T04:58:44.005Z,71.19
2023-02-11T04:59:45.549Z,71.08
2023-02-11T05:00:47.504Z,70.92
2023-02-11T05:01:49.989Z,70.66
2023-02-11T05:02:51.552Z,70.75
2023-02-11T05:03:53.157Z,70.37
2023-02-11T05:04:54.733Z,69.95
2023-02-11T05:05:56.367Z,69.64
2023-02-11T05:06:58.811Z,69.22
2023-02-11T05:08:00.405Z,69.29
2023-02-11T05:09:02.001Z,69.32
2023-02-11T05:10:04.188Z,69.70
2023-02-11T05:11:06.253Z,69.58
2023-02-11T05:12:08.821Z,70.52
2023-02-11T05:13:10.338Z,71.32
2023-02-11T05:14:11.970Z,71.50
2023-02-11T05:15:13.512Z,71.71
2023-02-11T05:16:16.304Z,71.99
2023-02-11T05:17:18.618Z,72.15
2023-02-11T05:18:20.203Z,72.37
2023-02-11T05:19:21.772Z,72.53
2023-02-11T05:20:23.620Z,72.29
2023-02-11T05:21:25.256Z,72.37
2023-02-11T05:22:26.844Z,72.21
2023-02-11T05:23:28.402Z,73.39
2023-02-11T05:24:33.339Z,73.82
2023-02-11T05:25:35.131Z,74.31
2023-02-11T05:26:36.695Z,74.59
2023-02-11T05:27:38.413Z,73.98
2023-02-11T05:28:40.148Z,74.29
2023-02-11T05:29:41.652Z,73.88
2023-02-11T05:30:43.337Z,73.79
2023-02-11T05:31:44.914Z,72.91
2023-02-11T05:32:46.491Z,72.64
2023-02-11T05:33:48.044Z,72.33
2023-02-11T05:34:49.594Z,71.68
2023-02-11T05:35:51.777Z,71.52
2023-02-11T05:36:53.534Z,71.36
2023-02-11T05:37:55.121Z,71.29
2023-02-11T05:38:56.700Z,71.44
2023-02-11T05:39:58.246Z,70.84
2023-02-11T05:41:00.060Z,70.70
2023-02-11T05:42:01.639Z,70.58
2023-02-11T05:43:03.423Z,71.07
2023-02-11T05:44:04.973Z,71.24
2023-02-11T05:45:07.002Z,71.58
2023-02-11T05:46:08.822Z,71.40
2023-02-11T05:47:10.475Z,71.01
2023-02-11T05:48:12.061Z,71.92
2023-02-11T05:49:13.586Z,71.20
2023-02-11T05:50:15.468Z,71.30
2023-02-11T05:51:17.004Z,70.33
2023-02-11T05:52:18.543Z,69.71
2023-02-11T05:53:20.087Z,69.23
2023-02-11T05:54:21.663Z,69.21
2023-02-11T05:55:23.403Z,69.11
2023-02-11T05:56:24.966Z,68.64
2023-02-11T05:57:26.495Z,68.95
2023-02-11T05:58:28.355Z,68.80
2023-02-11T05:59:30.102Z,69.33
2023-02-11T06:00:31.635Z,70.13
2023-02-11T06:01:33.229Z,70.43
2023-02-11T06:02:34.874Z,70.53
2023-02-11T06:03:36.505Z,70.49
2023-02-11T06:04:38.252Z,70.46
2023-02-11T06:05:39.862Z,70.59
2023-02-11T06:06:41.417Z,71.67
2023-02-11T06:07:43.217Z,72.34
2023-02-11T06:08:44.775Z,72.68
2023-02-11T06:09:46.392Z,72.80
2023-02-11T06:10:47.963Z,71.95
2023-02-11T06:11:49.502Z,72.11
2023-02-11T06:12:51.086Z,71.56
2023-02-11T06:13:52.721Z,71.11
2023-02-11T06:14:54.259Z,71.07
2023-02-11T06:15:57.921Z,70.77
2023-02-11T06:16:59.620Z,70.78
2023-02-11T06:18:01.241Z,70.01
2023-02-11T06:19:02.915Z,69.98
2023-02-11T06:20:07.674Z,69.46
2023-02-11T06:21:11.439Z,69.61
2023-02-11T06:22:13.047Z,69.78
2023-02-11T06:23:14.704Z,69.81
2023-02-11T06:24:21.645Z,69.54
2023-02-11T06:25:30.241Z,69.41
2023-02-11T06:26:32.771Z,69.29
2023-02-11T06:27:34.304Z,69.21
2023-02-11T06:28:36.156Z,69.51
2023-02-11T06:29:37.802Z,69.36
2023-02-11T06:30:39.368Z,70.16
2023-02-11T06:31:41.147Z,70.04
2023-02-11T06:32:45.213Z,71.26
2023-02-11T06:33:47.382Z,70.98
2023-02-11T06:34:48.969Z,70.93
2023-02-11T06:35:51.159Z,71.28
2023-02-11T06:36:52.890Z,72.46
2023-02-11T06:37:54.637Z,72.45
2023-02-11T06:38:56.175Z,73.24
2023-02-11T06:39:57.814Z,73.36
2023-02-11T06:40:59.371Z,73.36
2023-02-11T06:42:00.899Z,73.61
2023-02-11T06:43:02.537Z,73.21
2023-02-11T06:44:04.401Z,73.51
2023-02-11T06:45:08.980Z,72.46
2023-02-11T06:46:10.618Z,71.74
2023-02-11T06:47:13.032Z,71.52
2023-02-11T06:48:14.770Z,70.99
2023-02-11T06:49:16.766Z,71.11
2023-02-11T06:50:18.373Z,70.83
2023-02-11T06:51:19.898Z,70.35
2023-02-11T06:52:21.523Z,69.26
2023-02-11T06:53:23.130Z,68.69
2023-02-11T06:54:24.738Z,68.25
2023-02-11T06:55:26.530Z,67.70
2023-02-11T06:56:28.192Z,68.38
2023-02-11T06:57:31.007Z,67.90
2023-02-11T06:58:33.350Z,67.12
2023-02-11T06:59:34.951Z,66.87
2023-02-11T07:00:37.453Z,67.03
2023-02-11T07:01:39.021Z,66.61
2023-02-11T07:02:40.622Z,66.28
2023-02-11T07:03:44.675Z,66.00
2023-02-11T07:04:46.303Z,65.20
2023-02-11T07:05:47.937Z,64.52
2023-02-11T07:06:49.532Z,64.17
2023-02-11T07:07:51.079Z,64.60
2023-02-11T07:08:54.334Z,67.96
2023-02-11T07:09:56.030Z,65.47
2023-02-11T07:10:57.568Z,65.11
2023-02-11T07:11:59.496Z,65.30
2023-02-11T07:13:01.097Z,65.78
2023-02-11T07:14:05.832Z,65.11
2023-02-11T07:15:07.750Z,65.34
2023-02-11T07:16:12.636Z,64.54
2023-02-11T07:17:14.701Z,62.64
2023-02-11T07:18:16.475Z,62.90
2023-02-11T07:19:18.031Z,62.59
2023-02-11T07:20:19.631Z,61.70
2023-02-11T07:21:24.343Z,61.76
2023-02-11T07:22:25.925Z,60.41
2023-02-11T07:23:28.361Z,60.70
2023-02-11T07:24:29.872Z,60.78
2023-02-11T07:25:31.493Z,61.32
2023-02-11T07:26:33.042Z,61.55
2023-02-11T07:27:34.684Z,60.58
2023-02-11T07:28:37.084Z,60.67
2023-02-11T07:29:38.713Z,60.90
2023-02-11T07:30:40.295Z,60.92
2023-02-11T07:31:41.962Z,61.22
2023-02-11T07:32:43.598Z,60.66
2023-02-11T07:33:45.965Z,60.07
2023-02-11T07:34:48.620Z,59.84
2023-02-11T07:35:50.423Z,60.27
2023-02-11T07:36:52.127Z,59.85
2023-02-11T07:37:53.648Z,59.85
2023-02-11T07:38:55.283Z,58.49
2023-02-11T07:39:56.854Z,59.21
2023-02-11T07:41:02.946Z,60.43
2023-02-11T07:42:04.808Z,66.83
2023-02-11T07:43:06.396Z,62.43
2023-02-11T07:44:08.013Z,62.26
2023-02-11T07:45:09.730Z,62.05
2023-02-11T07:46:15.318Z,61.15
2023-02-11T07:47:16.980Z,60.63
2023-02-11T07:48:18.578Z,59.58
2023-02-11T07:49:20.107Z,60.11
2023-02-11T07:50:21.684Z,61.19
2023-02-11T07:51:29.117Z,61.09
2023-02-11T07:52:31.258Z,61.59
2023-02-11T07:53:32.840Z,60.79
2023-02-11T07:54:34.520Z,60.34
2023-02-11T07:55:36.080Z,61.05
2023-02-11T07:56:37.649Z,62.51
2023-02-11T07:57:39.207Z,63.95
2023-02-11T07:58:43.159Z,63.72
2023-02-11T07:59:44.758Z,62.83
2023-02-11T08:00:46.496Z,61.39
2023-02-11T08:01:48.191Z,60.49
2023-02-11T08:02:49.875Z,60.25
2023-02-11T08:03:52.168Z,61.50
2023-02-11T08:04:53.727Z,62.34
2023-02-11T08:05:55.330Z,63.12
2023-02-11T08:06:59.111Z,63.38
2023-02-11T08:08:00.817Z,62.19
2023-02-11T08:09:07.625Z,62.17
2023-02-11T08:10:09.313Z,62.77
2023-02-11T08:11:14.376Z,62.04
2023-02-11T08:12:15.955Z,62.09
2023-02-11T08:13:17.490Z,61.28
2023-02-11T08:14:20.447Z,60.45
2023-02-11T08:15:22.075Z,59.54
2023-02-11T08:16:26.368Z,59.30
2023-02-11T08:17:27.974Z,58.20
2023-02-11T08:18:30.607Z,57.15
2023-02-11T08:19:34.871Z,55.95
2023-02-11T08:20:36.711Z,56.30
2023-02-11T08:21:39.501Z,55.56
2023-02-11T08:22:41.202Z,55.72
2023-02-11T08:23:44.389Z,56.19
2023-02-11T08:24:45.951Z,55.21
2023-02-11T08:25:47.478Z,56.06
2023-02-11T08:26:49.577Z,57.25
2023-02-11T08:27:51.147Z,56.46
2023-02-11T08:28:54.342Z,56.29
2023-02-11T08:29:56.163Z,55.57
2023-02-11T08:30:58.044Z,55.65
2023-02-11T08:31:59.827Z,55.26
2023-02-11T08:33:01.590Z,55.21
2023-02-11T08:34:03.586Z,71.26
2023-02-11T08:35:07.900Z,62.17
2023-02-11T08:36:10.822Z,55.06
2023-02-11T08:37:12.408Z,54.48
2023-02-11T08:38:13.932Z,53.35
2023-02-11T08:39:20.493Z,53.40
2023-02-11T08:40:22.817Z,50.84
2023-02-11T08:41:24.505Z,51.95
2023-02-11T08:42:26.082Z,52.91
2023-02-11T08:43:27.618Z,52.92
2023-02-11T08:44:30.061Z,53.01
2023-02-11T08:45:32.385Z,53.81
2023-02-11T08:46:34.036Z,64.38
2023-02-11T08:47:36.479Z,54.65
2023-02-11T08:48:38.198Z,52.24
2023-02-11T08:49:41.865Z,52.28
2023-02-11T08:50:43.474Z,52.45
2023-02-11T08:51:46.031Z,51.37
2023-02-11T08:52:47.595Z,51.55
2023-02-11T08:53:49.283Z,52.36
2023-02-11T08:54:51.199Z,52.40
2023-02-11T08:55:55.495Z,52.07
2023-02-11T08:56:58.290Z,51.54
2023-02-11T08:57:59.921Z,50.68
2023-02-11T08:59:01.920Z,51.13
2023-02-11T09:00:04.684Z,49.87
2023-02-11T09:01:32.619Z,49.31
2023-02-11T09:02:34.177Z,48.91
2023-02-11T09:03:35.771Z,49.19
2023-02-11T09:04:37.320Z,49.30
2023-02-11T09:05:47.259Z,48.41
2023-02-11T09:06:49.060Z,48.78
2023-02-11T09:07:50.663Z,48.22
2023-02-11T09:08:54.774Z,49.22
2023-02-11T09:09:56.288Z,46.83
2023-02-11T09:10:57.910Z,49.12
2023-02-11T09:12:01.311Z,49.18
2023-02-11T09:13:03.150Z,48.81
2023-02-11T09:14:04.817Z,48.70
2023-02-11T09:15:06.774Z,49.73
2023-02-11T09:16:08.698Z,49.02
2023-02-11T09:17:10.342Z,50.05
2023-02-11T09:18:12.010Z,50.52
2023-02-11T09:19:13.905Z,48.35
2023-02-11T09:20:15.600Z,47.17
2023-02-11T09:21:18.385Z,46.76
2023-02-11T09:22:19.944Z,46.79
2023-02-11T09:23:21.492Z,46.28
2023-02-11T09:24:23.067Z,47.18
2023-02-11T09:25:25.685Z,47.06
2023-02-11T09:26:32.541Z,46.70
2023-02-11T09:27:34.114Z,46.54
2023-02-11T09:28:35.920Z,45.99
2023-02-11T09:29:37.594Z,46.90
2023-02-11T09:30:39.516Z,47.62
2023-02-11T09:31:41.329Z,46.87
2023-02-11T09:32:42.999Z,45.83
2023-02-11T09:33:49.536Z,45.83
2023-02-11T09:34:51.151Z,47.71
2023-02-11T09:35:52.706Z,47.50
2023-02-11T09:36:54.366Z,47.39
2023-02-11T09:37:56.062Z,47.83
2023-02-11T09:38:59.810Z,47.70
2023-02-11T09:40:01.421Z,50.05
2023-02-11T09:41:08.086Z,48.31
2023-02-11T09:42:45.206Z,47.84
2023-02-11T09:43:48.277Z,47.60
2023-02-11T09:44:50.204Z,47.83
2023-02-11T09:45:55.887Z,47.64
2023-02-11T09:47:01.519Z,47.07
2023-02-11T09:48:12.594Z,46.02
2023-02-11T09:49:22.640Z,46.30
2023-02-11T09:50:32.580Z,46.23
2023-02-11T09:51:48.260Z,45.66
2023-02-11T09:53:14.702Z,45.84
2023-02-11T09:54:53.849Z,45.07
2023-02-11T09:55:59.723Z,46.15
2023-02-11T09:57:02.105Z,46.82
2023-02-11T09:58:11.544Z,45.73
2023-02-11T09:59:17.667Z,46.42
2023-02-11T10:00:25.106Z,45.24
2023-02-11T10:01:39.906Z,45.49
2023-02-11T10:03:15.819Z,46.24
2023-02-11T10:04:31.786Z,45.23
2023-02-11T10:05:36.161Z,43.91
2023-02-11T10:06:56.444Z,45.51
2023-02-11T10:08:09.880Z,43.29
2023-02-11T10:09:20.465Z,43.49
2023-02-11T10:10:40.592Z,43.51
2023-02-11T10:12:12.626Z,43.67
2023-02-11T10:14:07.610Z,43.98
2023-02-11T10:15:17.936Z,43.09
2023-02-11T10:16:34.072Z,42.53
2023-02-11T10:17:50.775Z,43.78
2023-02-11T10:19:27.278Z,43.15
2023-02-11T10:20:55.674Z,42.36
2023-02-11T10:22:06.126Z,42.73
2023-02-11T10:23:17.191Z,43.09
2023-02-11T10:24:20.398Z,42.60
2023-02-11T10:25:46.515Z,44.51
2023-02-11T10:26:49.080Z,44.58
2023-02-11T10:27:52.362Z,44.55
2023-02-11T10:28:55.710Z,44.63
2023-02-11T10:30:08.533Z,45.03
2023-02-11T10:31:18.108Z,43.41
2023-02-11T10:33:04.636Z,43.26
2023-02-11T10:34:10.481Z,43.89
2023-02-11T10:35:22.068Z,43.44
2023-02-11T10:36:28.148Z,41.82
2023-02-11T10:37:30.775Z,42.25
2023-02-11T10:38:33.859Z,42.20
2023-02-11T10:39:35.370Z,42.96
2023-02-11T10:40:37.124Z,42.98
2023-02-11T10:41:51.244Z,43.73
2023-02-11T10:42:56.226Z,42.90
2023-02-11T10:44:00.458Z,42.78
2023-02-11T10:45:06.297Z,43.67
2023-02-11T10:46:16.398Z,44.16
2023-02-11T10:47:22.173Z,44.00
2023-02-11T10:48:44.928Z,44.40
2023-02-11T10:49:47.395Z,43.85
2023-02-11T10:50:49.065Z,43.33
2023-02-11T10:52:08.223Z,43.46
2023-02-11T10:53:17.380Z,43.79
2023-02-11T10:54:24.386Z,43.88
2023-02-11T10:55:27.880Z,44.26
2023-02-11T10:56:44.503Z,44.58
2023-02-11T10:57:59.344Z,43.53
2023-02-11T10:59:05.457Z,43.95
2023-02-11T11:00:23.061Z,43.38
2023-02-11T11:01:39.462Z,42.49
2023-02-11T11:02:44.549Z,42.72
2023-02-11T11:03:50.125Z,42.67
2023-02-11T11:04:57.633Z,42.78
2023-02-11T11:06:00.935Z,43.91
2023-02-11T11:07:20.100Z,43.73
2023-02-11T11:08:22.128Z,43.32
2023-02-11T11:09:43.338Z,42.62
2023-02-11T11:10:47.843Z,43.01
2023-02-11T11:11:53.912Z,41.69
2023-02-11T11:12:55.578Z,42.07
2023-02-11T11:14:00.260Z,41.47
2023-02-11T11:15:11.266Z,40.99
2023-02-11T11:16:12.836Z,40.87
2023-02-11T11:17:19.026Z,40.51
2023-02-11T11:18:23.304Z,40.81
2023-02-11T11:19:25.888Z,40.94
2023-02-11T11:20:29.804Z,40.84
2023-02-11T11:21:41.634Z,40.73
2023-02-11T11:22:43.934Z,40.96
2023-02-11T11:23:52.767Z,39.98
2023-02-11T11:24:55.942Z,39.84
2023-02-11T11:26:05.088Z,39.20
2023-02-11T11:27:07.098Z,39.09
2023-02-11T11:28:22.044Z,40.46
2023-02-11T11:29:38.069Z,40.54
2023-02-11T11:30:42.825Z,40.28
2023-02-11T11:32:05.580Z,40.50
2023-02-11T11:33:20.999Z,40.85
2023-02-11T11:34:29.881Z,40.59
2023-02-11T11:35:33.194Z,40.16
2023-02-11T11:36:38.076Z,40.27
2023-02-11T11:37:39.718Z,40.82
2023-02-11T11:38:50.390Z,39.97
2023-02-11T11:40:09.747Z,40.95
2023-02-11T11:41:22.616Z,39.06
2023-02-11T11:42:29.900Z,38.29
2023-02-11T11:43:31.995Z,39.19
2023-02-11T11:44:38.476Z,41.27
2023-02-11T11:45:52.976Z,43.38
2023-02-11T11:47:13.543Z,44.86
2023-02-11T11:48:34.355Z,43.29
2023-02-11T11:49:51.154Z,43.79
2023-02-11T11:51:02.060Z,42.52
2023-02-11T11:52:56.453Z,41.87
2023-02-11T11:54:03.081Z,43.02
2023-02-11T11:55:13.236Z,42.97
2023-02-11T11:56:19.924Z,44.13
2023-02-11T11:57:28.326Z,42.90
2023-02-11T11:58:32.259Z,42.59
2023-02-11T11:59:33.806Z,44.38
2023-02-11T12:00:47.502Z,44.21
2023-02-11T12:02:08.496Z,43.16
2023-02-11T12:03:40.807Z,43.41
2023-02-11T12:05:02.946Z,43.29
2023-02-11T12:06:19.771Z,43.20
2023-02-11T12:07:26.848Z,43.06
2023-02-11T12:08:50.155Z,42.04
2023-02-11T12:10:19.602Z,43.58
2023-02-11T12:11:34.738Z,42.51
2023-02-11T12:13:10.335Z,43.10
2023-02-11T12:14:49.529Z,40.42
2023-02-11T12:16:03.028Z,40.45
2023-02-11T12:17:22.410Z,40.13
2023-02-11T12:18:38.173Z,40.33
2023-02-11T12:20:10.138Z,40.43
2023-02-11T12:21:31.831Z,40.73
2023-02-11T12:22:47.400Z,41.05
2023-02-11T12:24:10.894Z,40.35
2023-02-11T12:25:39.710Z,40.73
2023-02-11T12:26:49.616Z,40.30
2023-02-11T12:28:15.307Z,41.31
2023-02-11T12:29:36.994Z,40.54
2023-02-11T12:30:53.562Z,39.43
2023-02-11T12:32:17.906Z,41.35
2023-02-11T12:33:42.059Z,41.35
2023-02-11T12:35:02.091Z,40.21
2023-02-11T12:36:20.696Z,40.10
2023-02-11T12:37:33.054Z,39.24
2023-02-11T12:38:38.021Z,40.69
2023-02-11T12:39:42.282Z,39.31
2023-02-11T12:41:05.327Z,38.41
2023-02-11T12:42:37.598Z,40.06
2023-02-11T12:43:44.486Z,41.07
2023-02-11T12:44:55.849Z,38.50
2023-02-11T12:46:31.291Z,40.11
2023-02-11T12:47:56.531Z,39.91
2023-02-11T12:49:31.061Z,39.84
2023-02-11T12:50:44.622Z,39.40
2023-02-11T12:52:04.518Z,39.36
2023-02-11T12:53:26.671Z,39.08
2023-02-11T12:54:47.736Z,37.27
2023-02-11T12:55:56.148Z,38.40
2023-02-11T12:57:15.682Z,38.16
2023-02-11T12:58:25.444Z,38.44
2023-02-11T12:59:56.711Z,38.93
2023-02-11T13:01:06.251Z,40.68
2023-02-11T13:02:37.467Z,38.33
2023-02-11T13:04:00.292Z,39.89
2023-02-11T13:05:19.638Z,38.61
2023-02-11T13:06:29.594Z,38.13
2023-02-11T13:07:40.650Z,37.29
2023-02-11T13:08:51.443Z,37.16
2023-02-11T13:10:02.190Z,38.47
2023-02-11T13:11:20.217Z,38.95
2023-02-11T13:12:40.670Z,38.07
2023-02-11T13:13:44.977Z,36.99
2023-02-11T13:14:48.708Z,37.09
2023-02-11T13:15:55.854Z,36.66
2023-02-11T13:16:58.702Z,39.44
2023-02-11T13:18:30.866Z,39.32
2023-02-11T13:19:48.449Z,37.93
2023-02-11T13:21:08.530Z,37.59
2023-02-11T13:22:18.790Z,38.46
2023-02-11T13:23:25.910Z,38.74
2023-02-11T13:25:06.165Z,37.90
2023-02-11T13:26:28.419Z,38.13
2023-02-11T13:27:38.373Z,36.55
2023-02-11T13:29:01.007Z,36.86
2023-02-11T13:30:11.206Z,36.46
2023-02-11T13:31:16.103Z,37.39
2023-02-11T13:32:17.739Z,37.69
2023-02-11T13:33:30.283Z,36.37
2023-02-11T13:34:43.718Z,36.60
2023-02-11T13:35:57.408Z,37.48
2023-02-11T13:36:59.099Z,36.45
2023-02-11T13:38:03.586Z,37.03
2023-02-11T13:39:06.564Z,36.25
2023-02-11T13:40:26.485Z,36.00
2023-02-11T13:41:31.908Z,35.00
2023-02-11T13:42:47.694Z,36.93
2023-02-11T13:44:23.727Z,35.50
2023-02-11T13:45:29.410Z,36.14
2023-02-11T13:46:50.820Z,36.68
2023-02-11T13:48:01.015Z,35.79
2023-02-11T13:49:02.559Z,35.54
2023-02-11T13:50:07.594Z,34.65
2023-02-11T13:51:12.664Z,34.98
2023-02-11T13:52:29.398Z,35.18
2023-02-11T13:53:54.894Z,35.81
2023-02-11T13:55:02.949Z,36.51
2023-02-11T13:56:09.618Z,35.84
2023-02-11T13:57:20.044Z,35.71
2023-02-11T13:58:29.043Z,35.74
2023-02-11T13:59:33.597Z,36.09
2023-02-11T14:00:35.281Z,39.01
2023-02-11T14:02:08.043Z,37.77
2023-02-11T14:03:31.056Z,36.55
2023-02-11T14:04:52.710Z,43.55
2023-02-11T14:06:37.865Z,37.34
2023-02-11T14:08:22.539Z,36.15
2023-02-11T14:09:34.233Z,36.08
2023-02-11T14:10:41.631Z,36.03
2023-02-11T14:11:49.063Z,35.76
2023-02-11T14:13:19.902Z,35.85
2023-02-11T14:14:35.034Z,36.10
2023-02-11T14:15:40.467Z,36.18
2023-02-11T14:17:11.398Z,36.13
2023-02-11T14:18:37.750Z,35.95
2023-02-11T14:19:43.741Z,35.74
2023-02-11T14:20:45.420Z,35.97
2023-02-11T14:21:47.083Z,36.00
2023-02-11T14:22:50.799Z,34.83
2023-02-11T14:23:56.210Z,35.11
2023-02-11T14:25:03.203Z,35.19